sensor_id;sensor_type;location;lat;lon;timestamp;pressure;altitude;pressure_sealevel;temperature;humidity
56568;BME280;42456;49.956;20.004;2023-04-26T00:01:57;97677.23;;;6.99;75.20
56568;BME280;42456;49.956;20.004;2023-04-26T00:04:24;97682.07;;;6.99;75.18
56568;BME280;42456;49.956;20.004;2023-04-26T00:06:51;97679.61;;;6.99;75.12
56568;BME280;42456;49.956;20.004;2023-04-26T00:09:18;97678.06;;;6.99;75.24
56568;BME280;42456;49.956;20.004;2023-04-26T00:11:45;97683.20;;;6.99;75.10
56568;BME280;42456;49.956;20.004;2023-04-26T00:14:12;97687.35;;;7.00;75.07
56568;BME280;42456;49.956;20.004;2023-04-26T00:16:39;97688.17;;;6.99;74.91
56568;BME280;42456;49.956;20.004;2023-04-26T00:19:05;97691.40;;;7.00;75.01
56568;BME280;42456;49.956;20.004;2023-04-26T00:21:32;97693.20;;;7.01;74.97
56568;BME280;42456;49.956;20.004;2023-04-26T00:23:59;97696.34;;;7.01;74.94
56568;BME280;42456;49.956;20.004;2023-04-26T00:26:26;97697.21;;;7.02;74.85
56568;BME280;42456;49.956;20.004;2023-04-26T00:28:52;97699.35;;;7.02;74.83
56568;BME280;42456;49.956;20.004;2023-04-26T00:31:20;97698.59;;;7.02;74.64
56568;BME280;42456;49.956;20.004;2023-04-26T00:33:46;97696.89;;;7.02;74.79
56568;BME280;42456;49.956;20.004;2023-04-26T00:36:13;97697.52;;;7.02;74.33
56568;BME280;42456;49.956;20.004;2023-04-26T00:38:45;97704.83;;;7.01;74.35
56568;BME280;42456;49.956;20.004;2023-04-26T00:41:12;97704.48;;;7.00;74.34
56568;BME280;42456;49.956;20.004;2023-04-26T00:43:39;97705.61;;;7.00;74.03
56568;BME280;42456;49.956;20.004;2023-04-26T00:46:08;97700.23;;;6.99;74.08
56568;BME280;42456;49.956;20.004;2023-04-26T00:48:36;97696.41;;;6.99;73.92
56568;BME280;42456;49.956;20.004;2023-04-26T00:51:03;97697.00;;;6.99;73.75
56568;BME280;42456;49.956;20.004;2023-04-26T00:53:31;97699.05;;;6.98;73.25
56568;BME280;42456;49.956;20.004;2023-04-26T00:56:00;97702.45;;;6.97;73.11
56568;BME280;42456;49.956;20.004;2023-04-26T00:58:27;97701.80;;;6.96;73.03
56568;BME280;42456;49.956;20.004;2023-04-26T01:00:55;97701.98;;;6.95;72.67
56568;BME280;42456;49.956;20.004;2023-04-26T01:03:22;97703.52;;;6.94;72.74
56568;BME280;42456;49.956;20.004;2023-04-26T01:05:49;97705.35;;;6.92;72.85
56568;BME280;42456;49.956;20.004;2023-04-26T01:08:16;97703.41;;;6.91;72.72
56568;BME280;42456;49.956;20.004;2023-04-26T01:10:47;97704.35;;;6.90;72.41
56568;BME280;42456;49.956;20.004;2023-04-26T01:13:15;97707.32;;;6.88;72.17
56568;BME280;42456;49.956;20.004;2023-04-26T01:15:45;97708.63;;;6.87;72.17
56568;BME280;42456;49.956;20.004;2023-04-26T01:18:13;97711.03;;;6.85;71.78
56568;BME280;42456;49.956;20.004;2023-04-26T01:20:41;97709.75;;;6.84;71.57
56568;BME280;42456;49.956;20.004;2023-04-26T01:23:09;97714.84;;;6.82;71.40
56568;BME280;42456;49.956;20.004;2023-04-26T01:25:37;97716.04;;;6.78;71.20
56568;BME280;42456;49.956;20.004;2023-04-26T01:28:04;97719.79;;;6.74;71.04
56568;BME280;42456;49.956;20.004;2023-04-26T01:30:31;97723.38;;;6.71;71.20
56568;BME280;42456;49.956;20.004;2023-04-26T01:32:57;97732.29;;;6.68;71.28
56568;BME280;42456;49.956;20.004;2023-04-26T01:35:24;97728.26;;;6.64;71.14
56568;BME280;42456;49.956;20.004;2023-04-26T01:37:51;97731.09;;;6.59;70.82
56568;BME280;42456;49.956;20.004;2023-04-26T01:40:18;97739.61;;;6.53;70.81
56568;BME280;42456;49.956;20.004;2023-04-26T01:42:45;97737.52;;;6.49;70.32
56568;BME280;42456;49.956;20.004;2023-04-26T01:45:12;97742.25;;;6.45;70.36
56568;BME280;42456;49.956;20.004;2023-04-26T01:47:39;97746.75;;;6.42;70.30
56568;BME280;42456;49.956;20.004;2023-04-26T01:50:06;97755.70;;;6.39;69.73
56568;BME280;42456;49.956;20.004;2023-04-26T01:52:33;97754.48;;;6.36;70.13
56568;BME280;42456;49.956;20.004;2023-04-26T01:55:00;97757.34;;;6.33;70.18
56568;BME280;42456;49.956;20.004;2023-04-26T01:57:27;97754.70;;;6.30;69.54
56568;BME280;42456;49.956;20.004;2023-04-26T01:59:54;97754.09;;;6.27;69.25
56568;BME280;42456;49.956;20.004;2023-04-26T02:02:22;97753.15;;;6.23;69.06
56568;BME280;42456;49.956;20.004;2023-04-26T02:04:49;97752.70;;;6.18;69.18
56568;BME280;42456;49.956;20.004;2023-04-26T02:07:16;97757.63;;;6.13;68.73
56568;BME280;42456;49.956;20.004;2023-04-26T02:09:43;97754.63;;;6.07;68.74
56568;BME280;42456;49.956;20.004;2023-04-26T02:12:11;97753.54;;;6.01;68.70
56568;BME280;42456;49.956;20.004;2023-04-26T02:14:38;97756.65;;;5.94;68.99
56568;BME280;42456;49.956;20.004;2023-04-26T02:17:05;97755.34;;;5.87;69.10
56568;BME280;42456;49.956;20.004;2023-04-26T02:19:34;97754.45;;;5.79;69.02
56568;BME280;42456;49.956;20.004;2023-04-26T02:22:04;97757.96;;;5.73;68.44
56568;BME280;42456;49.956;20.004;2023-04-26T02:24:31;97756.55;;;5.68;69.01
56568;BME280;42456;49.956;20.004;2023-04-26T02:26:59;97762.92;;;5.62;68.99
56568;BME280;42456;49.956;20.004;2023-04-26T02:29:29;97761.91;;;5.59;69.69
56568;BME280;42456;49.956;20.004;2023-04-26T02:32:10;97763.08;;;5.55;69.27
56568;BME280;42456;49.956;20.004;2023-04-26T02:34:37;97762.81;;;5.51;69.39
56568;BME280;42456;49.956;20.004;2023-04-26T02:37:03;97764.05;;;5.47;69.44
56568;BME280;42456;49.956;20.004;2023-04-26T02:39:30;97765.76;;;5.43;70.01
56568;BME280;42456;49.956;20.004;2023-04-26T02:41:57;97764.48;;;5.40;70.14
56568;BME280;42456;49.956;20.004;2023-04-26T02:44:28;97768.91;;;5.38;70.12
56568;BME280;42456;49.956;20.004;2023-04-26T02:46:55;97770.66;;;5.37;69.96
56568;BME280;42456;49.956;20.004;2023-04-26T02:49:22;97773.00;;;5.35;70.02
56568;BME280;42456;49.956;20.004;2023-04-26T02:51:49;97771.36;;;5.32;69.72
56568;BME280;42456;49.956;20.004;2023-04-26T02:54:16;97768.48;;;5.30;70.36
56568;BME280;42456;49.956;20.004;2023-04-26T02:56:43;97767.47;;;5.26;70.06
56568;BME280;42456;49.956;20.004;2023-04-26T02:59:10;97768.33;;;5.22;69.78
56568;BME280;42456;49.956;20.004;2023-04-26T03:01:36;97770.73;;;5.18;70.31
56568;BME280;42456;49.956;20.004;2023-04-26T03:04:04;97770.16;;;5.15;70.04
56568;BME280;42456;49.956;20.004;2023-04-26T03:06:31;97773.08;;;5.12;70.14
56568;BME280;42456;49.956;20.004;2023-04-26T03:08:58;97779.11;;;5.09;70.28
56568;BME280;42456;49.956;20.004;2023-04-26T03:11:25;97777.40;;;5.05;70.35
56568;BME280;42456;49.956;20.004;2023-04-26T03:13:52;97774.66;;;5.02;70.37
56568;BME280;42456;49.956;20.004;2023-04-26T03:16:22;97777.48;;;4.98;70.44
56568;BME280;42456;49.956;20.004;2023-04-26T03:18:49;97778.27;;;4.94;70.95
56568;BME280;42456;49.956;20.004;2023-04-26T03:21:16;97783.80;;;4.91;71.24
56568;BME280;42456;49.956;20.004;2023-04-26T03:23:43;97791.27;;;4.86;70.78
56568;BME280;42456;49.956;20.004;2023-04-26T03:26:10;97788.71;;;4.81;70.69
56568;BME280;42456;49.956;20.004;2023-04-26T03:28:37;97793.16;;;4.76;70.95
56568;BME280;42456;49.956;20.004;2023-04-26T03:31:04;97798.16;;;4.71;70.94
56568;BME280;42456;49.956;20.004;2023-04-26T03:33:31;97799.98;;;4.67;70.90
56568;BME280;42456;49.956;20.004;2023-04-26T03:35:57;97801.70;;;4.63;70.84
56568;BME280;42456;49.956;20.004;2023-04-26T03:38:24;97806.52;;;4.60;71.46
56568;BME280;42456;49.956;20.004;2023-04-26T03:40:51;97809.89;;;4.57;71.57
56568;BME280;42456;49.956;20.004;2023-04-26T03:43:18;97814.13;;;4.56;71.27
56568;BME280;42456;49.956;20.004;2023-04-26T03:45:55;97813.14;;;4.57;71.57
56568;BME280;42456;49.956;20.004;2023-04-26T03:48:32;97818.09;;;4.57;71.87
56568;BME280;42456;49.956;20.004;2023-04-26T03:50:59;97813.40;;;4.57;72.12
56568;BME280;42456;49.956;20.004;2023-04-26T03:53:26;97818.13;;;4.58;71.74
56568;BME280;42456;49.956;20.004;2023-04-26T03:55:53;97819.22;;;4.59;71.52
56568;BME280;42456;49.956;20.004;2023-04-26T03:58:19;97824.92;;;4.61;71.55
56568;BME280;42456;49.956;20.004;2023-04-26T04:00:46;97826.86;;;4.63;71.52
56568;BME280;42456;49.956;20.004;2023-04-26T04:03:13;97831.80;;;4.65;72.08
56568;BME280;42456;49.956;20.004;2023-04-26T04:05:40;97837.85;;;4.69;71.96
56568;BME280;42456;49.956;20.004;2023-04-26T04:08:07;97841.11;;;4.73;71.90
56568;BME280;42456;49.956;20.004;2023-04-26T04:10:35;97838.80;;;4.78;71.48
56568;BME280;42456;49.956;20.004;2023-04-26T04:13:03;97841.30;;;4.84;71.62
56568;BME280;42456;49.956;20.004;2023-04-26T04:15:30;97841.44;;;4.91;71.43
56568;BME280;42456;49.956;20.004;2023-04-26T04:17:57;97843.27;;;4.99;71.73
56568;BME280;42456;49.956;20.004;2023-04-26T04:20:24;97848.85;;;5.11;71.40
56568;BME280;42456;49.956;20.004;2023-04-26T04:22:51;97852.60;;;5.23;71.16
56568;BME280;42456;49.956;20.004;2023-04-26T04:25:18;97847.20;;;5.36;71.08
56568;BME280;42456;49.956;20.004;2023-04-26T04:27:47;97852.99;;;5.51;70.77
56568;BME280;42456;49.956;20.004;2023-04-26T04:30:14;97855.40;;;5.66;70.31
56568;BME280;42456;49.956;20.004;2023-04-26T04:32:41;97858.36;;;5.79;70.45
56568;BME280;42456;49.956;20.004;2023-04-26T04:35:12;97862.61;;;5.93;69.97
56568;BME280;42456;49.956;20.004;2023-04-26T04:37:42;97865.91;;;6.04;69.67
56568;BME280;42456;49.956;20.004;2023-04-26T04:40:10;97866.08;;;6.16;69.22
56568;BME280;42456;49.956;20.004;2023-04-26T04:42:37;97873.45;;;6.29;68.90
56568;BME280;42456;49.956;20.004;2023-04-26T04:45:04;97873.20;;;6.42;68.55
56568;BME280;42456;49.956;20.004;2023-04-26T04:47:31;97879.25;;;6.55;68.60
56568;BME280;42456;49.956;20.004;2023-04-26T04:49:59;97883.52;;;6.66;68.08
56568;BME280;42456;49.956;20.004;2023-04-26T04:52:26;97881.04;;;6.78;67.81
56568;BME280;42456;49.956;20.004;2023-04-26T04:54:53;97883.36;;;6.90;67.60
56568;BME280;42456;49.956;20.004;2023-04-26T04:57:20;97887.34;;;7.04;67.61
56568;BME280;42456;49.956;20.004;2023-04-26T04:59:47;97886.30;;;7.20;67.09
56568;BME280;42456;49.956;20.004;2023-04-26T05:02:14;97887.35;;;7.38;66.58
56568;BME280;42456;49.956;20.004;2023-04-26T05:04:41;97886.85;;;7.60;66.15
56568;BME280;42456;49.956;20.004;2023-04-26T05:07:08;97885.29;;;7.87;65.84
56568;BME280;42456;49.956;20.004;2023-04-26T05:09:35;97884.13;;;8.21;64.80
56568;BME280;42456;49.956;20.004;2023-04-26T05:12:02;97890.98;;;8.53;64.37
56568;BME280;42456;49.956;20.004;2023-04-26T05:14:29;97891.16;;;8.88;63.94
56568;BME280;42456;49.956;20.004;2023-04-26T05:16:56;97893.25;;;9.19;63.38
56568;BME280;42456;49.956;20.004;2023-04-26T05:19:23;97897.85;;;9.49;62.94
56568;BME280;42456;49.956;20.004;2023-04-26T05:21:51;97894.41;;;9.82;62.03
56568;BME280;42456;49.956;20.004;2023-04-26T05:24:18;97893.46;;;10.15;61.37
56568;BME280;42456;49.956;20.004;2023-04-26T05:26:45;97894.64;;;10.47;60.25
56568;BME280;42456;49.956;20.004;2023-04-26T05:29:11;97894.27;;;10.79;59.86
56568;BME280;42456;49.956;20.004;2023-04-26T05:31:39;97894.13;;;11.11;58.87
56568;BME280;42456;49.956;20.004;2023-04-26T05:34:06;97899.43;;;11.35;57.69
56568;BME280;42456;49.956;20.004;2023-04-26T05:36:33;97904.62;;;11.58;57.38
56568;BME280;42456;49.956;20.004;2023-04-26T05:38:59;97908.65;;;11.80;56.75
56568;BME280;42456;49.956;20.004;2023-04-26T05:41:26;97911.57;;;12.04;56.16
56568;BME280;42456;49.956;20.004;2023-04-26T05:43:53;97912.21;;;12.29;55.93
56568;BME280;42456;49.956;20.004;2023-04-26T05:46:20;97911.72;;;12.44;55.20
56568;BME280;42456;49.956;20.004;2023-04-26T05:48:47;97913.59;;;12.47;54.28
56568;BME280;42456;49.956;20.004;2023-04-26T05:51:14;97914.83;;;12.57;54.34
56568;BME280;42456;49.956;20.004;2023-04-26T05:53:41;97916.97;;;12.75;54.13
56568;BME280;42456;49.956;20.004;2023-04-26T05:56:08;97918.15;;;13.00;53.57
56568;BME280;42456;49.956;20.004;2023-04-26T05:58:35;97914.30;;;13.52;52.66
56568;BME280;42456;49.956;20.004;2023-04-26T06:01:02;97916.34;;;14.32;50.91
56568;BME280;42456;49.956;20.004;2023-04-26T06:03:29;97915.58;;;15.54;50.31
56568;BME280;42456;49.956;20.004;2023-04-26T06:05:58;97912.95;;;17.16;49.39
56568;BME280;42456;49.956;20.004;2023-04-26T06:08:25;97916.86;;;18.18;49.06
56568;BME280;42456;49.956;20.004;2023-04-26T06:10:53;97920.23;;;17.94;47.37
56568;BME280;42456;49.956;20.004;2023-04-26T06:13:20;97922.48;;;17.23;45.38
56568;BME280;42456;49.956;20.004;2023-04-26T06:15:47;97923.64;;;16.39;44.60
56568;BME280;42456;49.956;20.004;2023-04-26T06:18:14;97924.55;;;15.70;45.61
56568;BME280;42456;49.956;20.004;2023-04-26T06:20:41;97928.10;;;15.11;45.89
56568;BME280;42456;49.956;20.004;2023-04-26T06:23:08;97927.05;;;14.66;46.24
56568;BME280;42456;49.956;20.004;2023-04-26T06:25:35;97930.67;;;14.24;46.40
56568;BME280;42456;49.956;20.004;2023-04-26T06:28:02;97931.55;;;13.89;47.08
56568;BME280;42456;49.956;20.004;2023-04-26T06:30:29;97932.92;;;13.52;46.43
56568;BME280;42456;49.956;20.004;2023-04-26T06:32:56;97929.39;;;13.23;47.75
56568;BME280;42456;49.956;20.004;2023-04-26T06:35:26;97928.23;;;13.10;48.41
56568;BME280;42456;49.956;20.004;2023-04-26T06:37:53;97920.66;;;12.99;48.96
56568;BME280;42456;49.956;20.004;2023-04-26T06:40:20;97921.73;;;12.82;48.85
56568;BME280;42456;49.956;20.004;2023-04-26T06:42:47;97925.20;;;12.72;49.30
56568;BME280;42456;49.956;20.004;2023-04-26T06:45:14;97926.95;;;12.68;49.43
56568;BME280;42456;49.956;20.004;2023-04-26T06:47:42;97926.83;;;12.66;49.21
56568;BME280;42456;49.956;20.004;2023-04-26T06:50:09;97923.86;;;12.65;49.12
56568;BME280;42456;49.956;20.004;2023-04-26T06:52:36;97925.77;;;12.67;49.53
56568;BME280;42456;49.956;20.004;2023-04-26T06:55:04;97928.48;;;12.68;48.97
56568;BME280;42456;49.956;20.004;2023-04-26T06:57:32;97927.80;;;12.68;48.98
56568;BME280;42456;49.956;20.004;2023-04-26T06:59:59;97930.59;;;12.71;49.06
56568;BME280;42456;49.956;20.004;2023-04-26T07:02:26;97930.10;;;12.80;49.47
56568;BME280;42456;49.956;20.004;2023-04-26T07:04:53;97934.66;;;12.88;49.58
56568;BME280;42456;49.956;20.004;2023-04-26T07:07:20;97932.13;;;12.85;48.78
56568;BME280;42456;49.956;20.004;2023-04-26T07:09:47;97935.19;;;12.84;48.24
56568;BME280;42456;49.956;20.004;2023-04-26T07:12:14;97939.79;;;12.76;47.42
56568;BME280;42456;49.956;20.004;2023-04-26T07:14:41;97939.23;;;12.75;47.01
56568;BME280;42456;49.956;20.004;2023-04-26T07:17:09;97932.55;;;12.76;47.03
56568;BME280;42456;49.956;20.004;2023-04-26T07:19:36;97931.75;;;12.82;47.54
56568;BME280;42456;49.956;20.004;2023-04-26T07:22:03;97936.66;;;12.95;47.78
56568;BME280;42456;49.956;20.004;2023-04-26T07:24:31;97933.42;;;13.07;47.07
56568;BME280;42456;49.956;20.004;2023-04-26T07:26:57;97932.88;;;13.04;46.72
56568;BME280;42456;49.956;20.004;2023-04-26T07:29:24;97934.79;;;13.09;47.25
56568;BME280;42456;49.956;20.004;2023-04-26T07:31:51;97935.69;;;13.15;47.02
56568;BME280;42456;49.956;20.004;2023-04-26T07:34:18;97932.98;;;13.12;46.83
56568;BME280;42456;49.956;20.004;2023-04-26T07:36:45;97939.84;;;13.15;47.32
56568;BME280;42456;49.956;20.004;2023-04-26T07:39:13;97942.10;;;13.23;47.30
56568;BME280;42456;49.956;20.004;2023-04-26T07:41:41;97945.55;;;13.32;47.56
56568;BME280;42456;49.956;20.004;2023-04-26T07:44:09;97946.50;;;13.31;46.55
56568;BME280;42456;49.956;20.004;2023-04-26T07:46:36;97944.71;;;13.26;45.80
56568;BME280;42456;49.956;20.004;2023-04-26T07:49:04;97947.37;;;13.31;46.17
56568;BME280;42456;49.956;20.004;2023-04-26T07:51:30;97948.77;;;13.35;46.39
56568;BME280;42456;49.956;20.004;2023-04-26T07:53:57;97951.92;;;13.28;46.20
56568;BME280;42456;49.956;20.004;2023-04-26T07:56:24;97953.39;;;13.20;46.36
56568;BME280;42456;49.956;20.004;2023-04-26T07:58:52;97951.98;;;13.09;45.42
56568;BME280;42456;49.956;20.004;2023-04-26T08:01:18;97954.73;;;12.92;44.88
56568;BME280;42456;49.956;20.004;2023-04-26T08:03:45;97959.85;;;12.99;45.48
56568;BME280;42456;49.956;20.004;2023-04-26T08:06:15;97960.77;;;13.05;45.11
56568;BME280;42456;49.956;20.004;2023-04-26T08:08:43;97962.89;;;13.14;45.45
56568;BME280;42456;49.956;20.004;2023-04-26T08:11:16;97962.10;;;13.27;45.63
56568;BME280;42456;49.956;20.004;2023-04-26T08:13:43;97960.91;;;13.26;43.96
56568;BME280;42456;49.956;20.004;2023-04-26T08:16:10;97964.09;;;13.16;44.48
56568;BME280;42456;49.956;20.004;2023-04-26T08:18:38;97963.52;;;13.07;44.37
56568;BME280;42456;49.956;20.004;2023-04-26T08:21:05;97960.68;;;12.92;44.37
56568;BME280;42456;49.956;20.004;2023-04-26T08:23:33;97965.46;;;12.76;44.14
56568;BME280;42456;49.956;20.004;2023-04-26T08:26:03;97967.52;;;12.78;44.52
56568;BME280;42456;49.956;20.004;2023-04-26T08:28:30;97963.99;;;12.82;44.58
56568;BME280;42456;49.956;20.004;2023-04-26T08:30:57;97964.87;;;12.77;44.10
56568;BME280;42456;49.956;20.004;2023-04-26T08:33:24;97965.70;;;12.54;42.67
56568;BME280;42456;49.956;20.004;2023-04-26T08:35:51;97974.13;;;12.34;43.94
56568;BME280;42456;49.956;20.004;2023-04-26T08:38:19;97972.13;;;12.28;44.15
56568;BME280;42456;49.956;20.004;2023-04-26T08:40:48;97965.99;;;12.41;44.66
56568;BME280;42456;49.956;20.004;2023-04-26T08:43:17;97963.43;;;12.62;44.90
56568;BME280;42456;49.956;20.004;2023-04-26T08:45:47;97964.20;;;12.81;44.65
56568;BME280;42456;49.956;20.004;2023-04-26T08:48:14;97969.64;;;12.99;44.97
56568;BME280;42456;49.956;20.004;2023-04-26T08:50:44;97983.20;;;12.92;43.65
56568;BME280;42456;49.956;20.004;2023-04-26T08:53:16;97977.90;;;12.67;43.27
56568;BME280;42456;49.956;20.004;2023-04-26T08:55:49;97983.96;;;12.39;43.40
56568;BME280;42456;49.956;20.004;2023-04-26T08:58:17;97986.98;;;12.24;44.19
56568;BME280;42456;49.956;20.004;2023-04-26T09:00:44;97984.23;;;12.17;44.69
56568;BME280;42456;49.956;20.004;2023-04-26T09:03:12;97982.05;;;12.15;44.82
56568;BME280;42456;49.956;20.004;2023-04-26T09:05:40;97977.88;;;12.24;45.31
56568;BME280;42456;49.956;20.004;2023-04-26T09:08:20;97972.95;;;12.36;45.72
56568;BME280;42456;49.956;20.004;2023-04-26T09:10:48;97969.37;;;12.44;45.25
56568;BME280;42456;49.956;20.004;2023-04-26T09:13:14;97966.53;;;12.51;46.27
56568;BME280;42456;49.956;20.004;2023-04-26T09:15:41;97964.59;;;12.50;45.00
56568;BME280;42456;49.956;20.004;2023-04-26T09:18:16;97968.10;;;12.27;42.69
56568;BME280;42456;49.956;20.004;2023-04-26T09:20:44;97975.65;;;12.10;44.01
56568;BME280;42456;49.956;20.004;2023-04-26T09:23:12;97976.38;;;12.00;44.25
56568;BME280;42456;49.956;20.004;2023-04-26T09:25:39;97977.04;;;11.90;44.50
56568;BME280;42456;49.956;20.004;2023-04-26T09:28:32;97977.58;;;11.81;44.89
56568;BME280;42456;49.956;20.004;2023-04-26T09:30:59;97974.67;;;11.74;44.85
56568;BME280;42456;49.956;20.004;2023-04-26T09:33:26;97982.77;;;11.72;45.62
56568;BME280;42456;49.956;20.004;2023-04-26T09:35:53;97981.92;;;11.72;46.32
56568;BME280;42456;49.956;20.004;2023-04-26T09:38:20;97985.11;;;11.73;46.80
56568;BME280;42456;49.956;20.004;2023-04-26T09:40:49;97983.00;;;11.77;46.98
56568;BME280;42456;49.956;20.004;2023-04-26T09:43:20;97987.84;;;11.88;47.41
56568;BME280;42456;49.956;20.004;2023-04-26T09:46:06;97992.35;;;12.01;47.89
56568;BME280;42456;49.956;20.004;2023-04-26T09:48:33;97992.79;;;12.14;48.06
56568;BME280;42456;49.956;20.004;2023-04-26T09:51:09;98002.14;;;12.15;47.53
56568;BME280;42456;49.956;20.004;2023-04-26T09:53:40;98003.20;;;12.06;47.16
56568;BME280;42456;49.956;20.004;2023-04-26T09:56:18;97990.99;;;12.02;46.65
56568;BME280;42456;49.956;20.004;2023-04-26T10:01:16;97985.25;;;12.20;47.41
56568;BME280;42456;49.956;20.004;2023-04-26T10:03:45;97988.23;;;12.22;47.18
56568;BME280;42456;49.956;20.004;2023-04-26T10:06:13;97999.67;;;12.21;46.76
56568;BME280;42456;49.956;20.004;2023-04-26T10:08:40;97993.46;;;12.08;46.13
56568;BME280;42456;49.956;20.004;2023-04-26T10:11:07;97989.39;;;11.91;46.85
56568;BME280;42456;49.956;20.004;2023-04-26T10:13:36;97992.46;;;11.83;48.13
56568;BME280;42456;49.956;20.004;2023-04-26T10:16:03;97990.86;;;11.77;48.67
56568;BME280;42456;49.956;20.004;2023-04-26T10:18:33;97984.55;;;11.81;49.77
56568;BME280;42456;49.956;20.004;2023-04-26T10:21:05;97980.00;;;11.97;50.21
56568;BME280;42456;49.956;20.004;2023-04-26T10:23:33;97979.89;;;12.18;51.14
56568;BME280;42456;49.956;20.004;2023-04-26T10:26:00;97980.47;;;12.34;50.31
56568;BME280;42456;49.956;20.004;2023-04-26T10:31:10;97983.96;;;12.24;48.72
56568;BME280;42456;49.956;20.004;2023-04-26T10:33:38;97994.67;;;12.07;48.35
56568;BME280;42456;49.956;20.004;2023-04-26T10:36:07;98006.68;;;11.79;47.92
56568;BME280;42456;49.956;20.004;2023-04-26T10:38:37;98015.04;;;11.52;47.94
56568;BME280;42456;49.956;20.004;2023-04-26T10:41:28;97992.40;;;11.28;47.75
56568;BME280;42456;49.956;20.004;2023-04-26T10:46:50;97995.15;;;11.03;48.10
56568;BME280;42456;49.956;20.004;2023-04-26T10:49:19;97993.63;;;11.08;48.84
56568;BME280;42456;49.956;20.004;2023-04-26T10:52:12;97993.73;;;11.22;49.59
56568;BME280;42456;49.956;20.004;2023-04-26T10:57:14;97998.39;;;11.38;48.47
56568;BME280;42456;49.956;20.004;2023-04-26T11:05:33;97999.09;;;11.15;47.11
56568;BME280;42456;49.956;20.004;2023-04-26T11:10:31;97999.05;;;11.04;47.32
56568;BME280;42456;49.956;20.004;2023-04-26T11:13:01;98000.22;;;11.10;47.52
56568;BME280;42456;49.956;20.004;2023-04-26T11:15:32;97999.73;;;11.19;47.51
56568;BME280;42456;49.956;20.004;2023-04-26T11:18:04;98000.35;;;11.24;46.73
56568;BME280;42456;49.956;20.004;2023-04-26T11:20:32;98004.84;;;11.20;45.14
56568;BME280;42456;49.956;20.004;2023-04-26T11:23:00;98005.06;;;11.17;45.48
56568;BME280;42456;49.956;20.004;2023-04-26T11:25:28;98007.77;;;11.23;45.74
56568;BME280;42456;49.956;20.004;2023-04-26T11:27:59;98001.85;;;11.36;46.62
56568;BME280;42456;49.956;20.004;2023-04-26T11:30:28;97998.88;;;11.60;46.85
56568;BME280;42456;49.956;20.004;2023-04-26T11:32:55;97990.75;;;11.77;46.57
56568;BME280;42456;49.956;20.004;2023-04-26T11:35:22;97991.87;;;11.89;47.03
56568;BME280;42456;49.956;20.004;2023-04-26T11:37:50;97997.28;;;11.93;46.39
56568;BME280;42456;49.956;20.004;2023-04-26T11:40:18;98002.09;;;11.91;45.41
56568;BME280;42456;49.956;20.004;2023-04-26T11:42:45;98005.03;;;11.86;45.10
56568;BME280;42456;49.956;20.004;2023-04-26T11:45:14;98006.05;;;11.78;44.28
56568;BME280;42456;49.956;20.004;2023-04-26T11:47:43;98014.11;;;11.70;44.68
56568;BME280;42456;49.956;20.004;2023-04-26T11:50:10;98023.65;;;11.60;44.30
56568;BME280;42456;49.956;20.004;2023-04-26T11:52:55;98034.21;;;11.45;44.48
56568;BME280;42456;49.956;20.004;2023-04-26T11:55:23;98038.64;;;11.26;44.57
56568;BME280;42456;49.956;20.004;2023-04-26T11:57:53;98035.73;;;11.10;44.85
56568;BME280;42456;49.956;20.004;2023-04-26T12:00:20;98041.29;;;10.96;44.59
56568;BME280;42456;49.956;20.004;2023-04-26T12:02:47;98044.90;;;10.79;44.47
56568;BME280;42456;49.956;20.004;2023-04-26T12:05:26;98046.08;;;10.71;44.47
56568;BME280;42456;49.956;20.004;2023-04-26T12:07:55;98039.27;;;10.67;44.22
56568;BME280;42456;49.956;20.004;2023-04-26T12:10:27;98031.97;;;10.69;43.93
56568;BME280;42456;49.956;20.004;2023-04-26T12:12:55;98030.64;;;10.73;43.80
56568;BME280;42456;49.956;20.004;2023-04-26T12:15:24;98032.80;;;10.82;44.29
56568;BME280;42456;49.956;20.004;2023-04-26T12:17:59;98026.73;;;10.94;44.53
56568;BME280;42456;49.956;20.004;2023-04-26T12:20:28;98027.85;;;11.08;44.61
56568;BME280;42456;49.956;20.004;2023-04-26T12:23:07;98023.06;;;11.20;44.45
56568;BME280;42456;49.956;20.004;2023-04-26T12:25:36;98021.70;;;11.28;44.64
56568;BME280;42456;49.956;20.004;2023-04-26T12:28:07;98027.93;;;11.41;44.83
56568;BME280;42456;49.956;20.004;2023-04-26T12:30:39;98022.66;;;11.55;43.99
56568;BME280;42456;49.956;20.004;2023-04-26T12:33:06;98023.70;;;11.63;43.66
56568;BME280;42456;49.956;20.004;2023-04-26T12:35:42;98026.39;;;11.69;43.75
56568;BME280;42456;49.956;20.004;2023-04-26T12:38:09;98025.89;;;11.70;43.96
56568;BME280;42456;49.956;20.004;2023-04-26T12:40:38;98022.25;;;11.74;43.93
56568;BME280;42456;49.956;20.004;2023-04-26T12:43:05;98022.60;;;11.79;44.18
56568;BME280;42456;49.956;20.004;2023-04-26T12:45:33;98034.68;;;11.86;44.90
56568;BME280;42456;49.956;20.004;2023-04-26T12:48:00;98033.67;;;11.95;45.13
56568;BME280;42456;49.956;20.004;2023-04-26T12:50:27;98038.27;;;12.07;45.23
56568;BME280;42456;49.956;20.004;2023-04-26T12:52:54;98036.34;;;12.15;44.48
56568;BME280;42456;49.956;20.004;2023-04-26T12:55:22;98042.27;;;12.21;44.02
56568;BME280;42456;49.956;20.004;2023-04-26T12:57:49;98048.19;;;12.32;44.18
56568;BME280;42456;49.956;20.004;2023-04-26T13:00:17;98046.66;;;12.38;43.66
56568;BME280;42456;49.956;20.004;2023-04-26T13:02:44;98041.33;;;12.40;42.89
56568;BME280;42456;49.956;20.004;2023-04-26T13:05:12;98038.38;;;12.42;43.25
56568;BME280;42456;49.956;20.004;2023-04-26T13:07:41;98039.00;;;12.43;43.21
56568;BME280;42456;49.956;20.004;2023-04-26T13:10:09;98035.67;;;12.42;43.14
56568;BME280;42456;49.956;20.004;2023-04-26T13:12:38;98034.58;;;12.38;43.43
56568;BME280;42456;49.956;20.004;2023-04-26T13:15:06;98029.23;;;12.34;43.27
56568;BME280;42456;49.956;20.004;2023-04-26T13:17:35;98034.82;;;12.27;43.02
56568;BME280;42456;49.956;20.004;2023-04-26T13:20:04;98039.80;;;12.18;42.88